Kezdőlap
METAR-TAF:

METAR-TAF

Repülőterek :

Ísafjörður, Izland

földrajzi szélesség: 66-03-29N, földrajzi hosszúság: 23-08-07W, magasság: 2 m

Jelenlegi meteorológiai megfigyelések

A jelentés 12 órával és 49 perccel ezelõtt készült, 18:00 UTC
Észak-északkeleti szél 4 kt
Hőmérséklet 14°C
Páratartalom 63%
Légköri nyomás 1017 hPa
Látótávolság 10 km, vagy több
Szakadozott felhőzet 6000 lábon

METAR: BIIS 151800Z 02004KT 9999 BKN060 14/07 Q1017

Idő: 06:49 (06:49 UTC)

Előrejelzés

A jelentés 14 órával és 42 perccel ezelõtt készült, 16:07 UTC
Az előrejelzés 15-én 17 óra UTC és 16-én 02 óra UTC között érvényes
Észak-északkeleti szél 8 kt
Látótávolság 10 km, vagy több
Kevés felhő 4000 lábon
Szakadozott felhőzet 5500 lábon

TAF: BIIS 151607Z 1517/1602 03008KT 9999 FEW040 BKN055

Meteorológiai megfigyelések és előrejelzések több, mint 4000 repülőtéren (METAR és TAF jelentéseket).

A térképen piros és sárga pontok jelzik az elérhető meteorológiai állomásokat.

Mozgassa az egeret a pont fölött, hogy megjelenjen az állomás neve.

Azután kattintson az időjárási megfigyelések és előrejelzések megtekintéséhez.

A térkép megváltoztatása: kattintson a fekete keresztel jelölt zöld gombra ráközelítéshez, a vonallal jelölt zöld gombra távolításhoz, vagy a zöld nyilakra a szomszédos térképek eléréséhez.


METAR-TAF: